createdAt,value
2022-12-25T00:00:25.030Z,75.64
2022-12-25T00:05:24.990Z,75.71
2022-12-25T00:10:24.821Z,75.81
2022-12-25T00:15:24.777Z,75.87
2022-12-25T00:20:24.660Z,75.91
2022-12-25T00:25:24.634Z,75.94
2022-12-25T00:30:24.569Z,75.96
2022-12-25T00:35:24.514Z,75.97
2022-12-25T00:40:24.644Z,76.00
2022-12-25T00:45:25.854Z,76.04
2022-12-25T00:50:24.262Z,76.09
2022-12-25T00:55:24.997Z,76.08
2022-12-25T01:00:24.145Z,76.10
2022-12-25T01:05:44.497Z,76.10
2022-12-25T01:10:36.921Z,76.11
2022-12-25T01:15:36.814Z,76.14
2022-12-25T01:20:37.444Z,76.15
2022-12-25T01:25:36.682Z,76.16
2022-12-25T01:30:36.669Z,76.19
2022-12-25T01:35:36.559Z,76.19
2022-12-25T01:40:37.192Z,76.18
2022-12-25T01:45:36.491Z,76.22
2022-12-25T01:50:36.360Z,76.23
2022-12-25T01:55:36.322Z,76.25
2022-12-25T02:00:36.354Z,76.27
2022-12-25T02:05:36.175Z,76.27
2022-12-25T02:10:36.081Z,76.29
2022-12-25T02:15:36.088Z,76.33
2022-12-25T02:20:36.120Z,76.38
2022-12-25T02:25:35.916Z,76.41
2022-12-25T02:30:36.393Z,76.41
2022-12-25T02:35:36.220Z,76.42
2022-12-25T02:40:36.919Z,76.38
2022-12-25T02:45:35.914Z,76.39
2022-12-25T02:50:35.563Z,76.40
2022-12-25T02:55:35.500Z,76.38
2022-12-25T03:00:36.153Z,76.38
2022-12-25T03:05:36.038Z,76.40
2022-12-25T03:10:35.822Z,76.38
2022-12-25T03:15:35.895Z,76.40
2022-12-25T03:20:35.283Z,76.41
2022-12-25T03:25:35.765Z,76.40
2022-12-25T03:30:35.051Z,76.38
2022-12-25T03:35:34.979Z,76.38
2022-12-25T03:40:34.879Z,76.39
2022-12-25T03:45:34.805Z,76.36
2022-12-25T03:50:34.748Z,76.35
2022-12-25T03:55:35.379Z,76.34
2022-12-25T04:00:35.305Z,76.35
2022-12-25T04:05:35.203Z,76.32
2022-12-25T04:10:35.024Z,76.33
2022-12-25T04:15:35.140Z,76.35
2022-12-25T04:20:34.347Z,76.38
2022-12-25T04:25:34.947Z,76.43
2022-12-25T04:30:34.905Z,76.49
2022-12-25T04:35:34.161Z,76.51
2022-12-25T04:40:34.774Z,76.52
2022-12-25T04:45:34.031Z,76.52
2022-12-25T04:50:34.068Z,76.51
2022-12-25T04:55:33.904Z,76.51
2022-12-25T05:00:34.499Z,76.50
2022-12-25T05:05:33.964Z,76.52
2022-12-25T05:10:35.129Z,76.54
2022-12-25T05:15:35.095Z,76.54
2022-12-25T05:20:39.746Z,76.58
2022-12-25T05:25:34.510Z,76.60
2022-12-25T05:30:33.509Z,76.63
2022-12-25T05:35:34.030Z,76.64
2022-12-25T05:40:33.276Z,76.65
2022-12-25T05:45:33.201Z,76.63
2022-12-25T05:50:33.637Z,76.61
2022-12-25T05:55:33.790Z,76.61
2022-12-25T06:00:33.744Z,76.62
2022-12-25T06:05:33.607Z,76.60
2022-12-25T06:10:33.359Z,76.62
2022-12-25T06:15:32.827Z,76.61
2022-12-25T06:20:32.820Z,76.60
2022-12-25T06:25:32.684Z,76.59
2022-12-25T06:30:32.697Z,76.61
2022-12-25T06:35:33.217Z,76.60
2022-12-25T06:40:32.461Z,76.60
2022-12-25T06:45:33.149Z,76.58
2022-12-25T06:50:32.341Z,76.59
2022-12-25T06:55:32.970Z,76.63
2022-12-25T07:00:48.114Z,76.62
2022-12-25T07:05:40.577Z,76.62
2022-12-25T07:10:40.405Z,76.65
2022-12-25T07:15:40.875Z,76.67
2022-12-25T07:20:40.269Z,76.70
2022-12-25T07:25:40.197Z,76.68
2022-12-25T07:30:40.846Z,76.69
2022-12-25T07:35:40.067Z,76.68
2022-12-25T07:40:39.999Z,76.67
2022-12-25T07:45:39.938Z,76.63
2022-12-25T07:50:39.862Z,76.66
2022-12-25T07:55:39.775Z,76.65
2022-12-25T08:00:39.807Z,76.62
2022-12-25T08:05:39.703Z,76.63
2022-12-25T08:10:39.603Z,76.64
2022-12-25T08:15:39.507Z,76.61
2022-12-25T08:20:39.452Z,76.51
2022-12-25T08:25:39.380Z,76.46
2022-12-25T08:30:39.380Z,76.39
2022-12-25T08:35:39.251Z,76.38
2022-12-25T08:40:39.183Z,76.40
2022-12-25T08:45:39.108Z,76.46
2022-12-25T08:50:39.062Z,76.45
2022-12-25T08:55:38.993Z,76.45
2022-12-25T09:00:38.931Z,76.41
2022-12-25T09:05:38.848Z,76.41
2022-12-25T09:10:39.014Z,76.38
2022-12-25T09:15:38.839Z,76.35
2022-12-25T09:20:38.652Z,76.33
2022-12-25T09:25:38.622Z,76.17
2022-12-25T09:30:38.565Z,75.86
2022-12-25T09:35:38.441Z,75.68
2022-12-25T09:40:38.385Z,75.80
2022-12-25T09:45:38.308Z,75.77
2022-12-25T09:50:38.227Z,75.69
2022-12-25T09:55:38.179Z,75.92
2022-12-25T10:00:38.161Z,76.09
2022-12-25T10:05:38.016Z,76.20
2022-12-25T10:10:37.978Z,76.28
2022-12-25T10:15:45.070Z,76.02
2022-12-25T10:20:38.854Z,75.66
2022-12-25T10:25:37.759Z,75.50
2022-12-25T10:30:37.703Z,75.29
2022-12-25T10:35:37.628Z,75.31
2022-12-25T10:40:37.570Z,75.13
2022-12-25T10:45:37.500Z,74.80
2022-12-25T10:50:37.448Z,74.20
2022-12-25T10:55:37.364Z,73.98
2022-12-25T11:00:37.334Z,74.60
2022-12-25T11:05:37.246Z,75.10
2022-12-25T11:10:37.174Z,75.22
2022-12-25T11:15:37.117Z,75.25
2022-12-25T11:20:38.419Z,75.30
2022-12-25T11:25:36.956Z,75.17
2022-12-25T11:30:36.926Z,75.03
2022-12-25T11:35:36.861Z,74.86
2022-12-25T11:40:36.771Z,74.85
2022-12-25T11:45:36.713Z,74.74
2022-12-25T11:50:36.639Z,74.25
2022-12-25T11:55:36.613Z,73.75
2022-12-25T12:00:36.519Z,73.16
2022-12-25T12:05:36.407Z,73.18
2022-12-25T12:10:36.345Z,73.35
2022-12-25T12:15:36.282Z,73.60
2022-12-25T12:20:36.241Z,73.82
2022-12-25T12:25:36.153Z,73.72
2022-12-25T12:30:36.087Z,73.65
2022-12-25T12:35:36.224Z,73.46
2022-12-25T12:40:35.981Z,73.42
2022-12-25T12:45:35.988Z,73.57
2022-12-25T12:50:35.834Z,73.49
2022-12-25T12:55:35.725Z,73.86
2022-12-25T13:00:36.644Z,73.77
2022-12-25T13:05:35.793Z,73.87
2022-12-25T13:10:35.555Z,73.89
2022-12-25T13:15:35.468Z,73.84
2022-12-25T13:20:35.416Z,73.75
2022-12-25T13:25:35.323Z,73.76
2022-12-25T13:30:35.281Z,73.69
2022-12-25T13:35:35.217Z,73.40
2022-12-25T13:40:35.151Z,73.24
2022-12-25T13:45:35.146Z,73.46
2022-12-25T13:50:35.003Z,73.50
2022-12-25T13:55:34.926Z,73.76
2022-12-25T14:00:34.869Z,74.06
2022-12-25T14:05:42.053Z,74.24
2022-12-25T14:10:36.367Z,74.40
2022-12-25T14:15:34.652Z,74.62
2022-12-25T14:20:34.598Z,74.74
2022-12-25T14:25:34.517Z,74.73
2022-12-25T14:30:34.624Z,74.72
2022-12-25T14:35:34.379Z,74.80
2022-12-25T14:40:34.323Z,74.89
2022-12-25T14:45:34.951Z,75.00
2022-12-25T14:50:34.361Z,75.08
2022-12-25T14:55:34.114Z,75.12
2022-12-25T15:00:34.061Z,75.16
2022-12-25T15:05:33.993Z,75.19
2022-12-25T15:15:35.006Z,75.30
2022-12-25T15:20:33.770Z,75.32
2022-12-25T15:25:33.711Z,75.38
2022-12-25T15:30:33.668Z,75.43
2022-12-25T15:35:33.568Z,75.50
2022-12-25T15:40:33.529Z,75.55
2022-12-25T15:45:33.439Z,75.59
2022-12-25T15:50:33.384Z,75.64
2022-12-25T15:55:33.315Z,75.68
2022-12-25T16:00:33.247Z,75.67
2022-12-25T16:05:33.168Z,75.71
2022-12-25T16:10:38.499Z,75.72
2022-12-25T16:15:34.095Z,75.78
2022-12-25T16:20:32.991Z,75.76
2022-12-25T16:25:33.061Z,75.80
2022-12-25T16:30:32.855Z,75.78
2022-12-25T16:35:32.764Z,75.78
2022-12-25T16:40:32.696Z,75.75
2022-12-25T16:45:32.637Z,75.75
2022-12-25T16:50:32.585Z,75.76
2022-12-25T16:55:32.505Z,75.72
2022-12-25T17:00:32.470Z,75.76
2022-12-25T17:05:32.371Z,75.74
2022-12-25T17:10:32.310Z,75.76
2022-12-25T17:15:32.227Z,75.75
2022-12-25T17:20:32.252Z,75.72
2022-12-25T17:25:32.112Z,75.72
2022-12-25T17:30:32.046Z,75.71
2022-12-25T17:35:31.986Z,75.74
2022-12-25T17:40:31.907Z,75.77
2022-12-25T17:45:31.848Z,75.78
2022-12-25T17:50:34.650Z,75.80
2022-12-25T17:55:32.711Z,75.83
2022-12-25T18:00:31.643Z,75.84
2022-12-25T18:05:31.562Z,75.84
2022-12-25T18:10:31.501Z,75.87
2022-12-25T18:15:31.453Z,75.86
2022-12-25T18:20:37.692Z,75.87
2022-12-25T18:25:32.347Z,75.86
2022-12-25T18:30:31.241Z,75.87
2022-12-25T18:35:32.092Z,75.86
2022-12-25T18:40:31.116Z,75.88
2022-12-25T18:45:31.123Z,75.89
2022-12-25T18:50:30.975Z,75.88
2022-12-25T18:55:30.934Z,75.90
2022-12-25T19:00:30.916Z,75.91
2022-12-25T19:05:30.758Z,75.93
2022-12-25T19:10:30.688Z,75.93
2022-12-25T19:15:30.624Z,75.93
2022-12-25T19:20:30.565Z,75.95
2022-12-25T19:25:30.490Z,75.94
2022-12-25T19:30:30.461Z,75.95
2022-12-25T19:35:30.357Z,75.91
2022-12-25T19:40:30.284Z,75.85
2022-12-25T19:45:30.223Z,75.83
2022-12-25T19:50:30.152Z,75.78
2022-12-25T19:55:30.075Z,75.76
2022-12-25T20:00:30.026Z,75.71
2022-12-25T20:05:29.952Z,75.69
2022-12-25T20:10:29.898Z,75.65
2022-12-25T20:15:29.820Z,75.61
2022-12-25T20:20:29.764Z,75.55
2022-12-25T20:25:29.697Z,75.48
2022-12-25T20:30:29.631Z,75.43
2022-12-25T20:35:29.570Z,75.42
2022-12-25T20:40:29.497Z,75.42
2022-12-25T20:45:29.487Z,75.39
2022-12-25T20:50:29.357Z,75.37
2022-12-25T20:55:29.280Z,75.35
2022-12-25T21:00:29.227Z,75.29
2022-12-25T21:05:29.136Z,75.25
2022-12-25T21:10:29.096Z,75.22
2022-12-25T21:15:29.240Z,75.18
2022-12-25T21:20:28.970Z,75.08
2022-12-25T21:25:28.855Z,75.04
2022-12-25T21:30:28.871Z,75.02
2022-12-25T21:35:28.763Z,74.99
2022-12-25T21:40:28.689Z,74.93
2022-12-25T21:45:28.611Z,74.86
2022-12-25T21:50:28.548Z,74.82
2022-12-25T21:55:28.463Z,74.81
2022-12-25T22:00:58.388Z,74.71
2022-12-25T22:05:33.448Z,74.56
2022-12-25T22:10:31.450Z,74.56
2022-12-25T22:15:32.245Z,74.51
2022-12-25T22:20:40.335Z,74.60
2022-12-25T22:25:34.977Z,74.61
2022-12-25T22:30:37.564Z,74.55
2022-12-25T22:35:38.449Z,74.46
2022-12-25T22:40:38.404Z,74.44
2022-12-25T22:45:52.683Z,74.47
2022-12-25T22:50:45.835Z,74.48
2022-12-25T22:55:31.606Z,74.53
2022-12-25T23:00:27.891Z,74.52
2022-12-25T23:05:27.512Z,74.52
2022-12-25T23:10:27.460Z,74.55
2022-12-25T23:15:27.377Z,74.54
2022-12-25T23:20:27.354Z,74.53
2022-12-25T23:25:27.245Z,74.53
2022-12-25T23:30:27.246Z,74.54
2022-12-25T23:35:27.131Z,74.56
2022-12-25T23:40:27.077Z,74.56
2022-12-25T23:45:27.025Z,74.59
2022-12-25T23:50:26.935Z,74.60
2022-12-25T23:55:26.839Z,74.62
